Hundvaag 1 weather for Mar 1991
Month no. 45
Obs.
Da.
Temp. Dew Point Precip. Wind
Speed
Wind gusts Cloud cover Press. Humidity Wind dir. Sunny OPT
01.03.1991 0,6   0,0             1  
02.03.1991 3,0   0,0                
03.03.1991 2,1   0,0                
04.03.1991 2,3   0,5             1  
05.03.1991 4,7   0,0                
06.03.1991 3,2   0,0                
07.03.1991 3,2   14,5                
08.03.1991 6,2   7,0                
09.03.1991 3,9   3,2                
10.03.1991 7,0   3,5                
11.03.1991 5,9   0,0                
12.03.1991 3,3   0,4                
13.03.1991 1,7   0,0                
14.03.1991 5,1   20,6                
15.03.1991 4,3   2,4             1  
16.03.1991 5,9   4,0                
17.03.1991 9,9   0,0                
18.03.1991 6,8   4,0             1  
19.03.1991 6,0   6,5                
20.03.1991 4,7   11,5             1  
21.03.1991 2,1   6,9                
22.03.1991 4,0   11,2             1  
23.03.1991 4,2   1,0             1  
24.03.1991 4,9   0,0             1  
25.03.1991 4,5   0,0             1  
26.03.1991 3,7   0,0             1  
27.03.1991 2,5   0,0             1  
28.03.1991 5,7   0,0             1  
29.03.1991 6,9   0,0             1  
30.03.1991 2,3   3,9                
31.03.1991 3,7   1,6                
Avrg/Sum 4,3   102,7             13